Etusivu
METAR-TAF:

METAR-TAF

Lentoasemat :

Cloquet/Carlton County Airport

Cloquet, Minnesota, Yhdysvallat

Leveyspiiri: 46-42N, Pituuspiiri: 092-30W, korkeus merenpinnasta: 390 m

Tämänhetkinen sää

Tämä raportti tehtiin 19 minuuttia sitten, kello 10.35 UTC
Tuuli 9 kn pohjoisesta
Lämpötila 1°C
Kosteus 93%
Ilmanpaine 1007 hPa
Näkyvyys: 6.4 km
Pilvistä 700 ft:n korkeudessa
tuntematon

METAR: KCOQ 211035Z AUTO 35009KT 4SM UP OVC007 01/00 A2975 RMK AO2

Aika: 04:54 (10:54 UTC)


TAF: puuttuu

Säähavainnot ja -ennusteet yli 4000 lentoasemalta (METAR- ja TAF-raportit).

Käytössä olevat sääasemat on merkitty karttaan keltaisilla ja punaisilla pisteillä.

Aseta hiiri pisteen päälle nähdäksesi sääaseman nimen.

Klikkaa sitten nähdäksesi säähavainnot ja -ennusteet.

Kartan vaihtaminen: klikkaa mustalla rastilla varustettuja vihreitä pisteitä, niin voit zoomata sisään; viivalla varustettua vihreää pistettä, niin voit zoomata ulos tai vihreitä nuolia, niin pääset viereisille kartoille.


METAR-TAF: